sensor_id;sensor_type;location;lat;lon;timestamp;P1;durP1;ratioP1;P2;durP2;ratioP2
46457;SDS011;32155;54.076;12.092;2023-03-24T00:00:15;16.05;;;8.45;;
46457;SDS011;32155;54.076;12.092;2023-03-24T00:02:47;15.20;;;9.45;;
46457;SDS011;32155;54.076;12.092;2023-03-24T00:05:16;16.35;;;9.57;;
46457;SDS011;32155;54.076;12.092;2023-03-24T00:07:44;17.45;;;9.65;;
46457;SDS011;32155;54.076;12.092;2023-03-24T00:10:13;16.85;;;9.35;;
46457;SDS011;32155;54.076;12.092;2023-03-24T00:12:43;18.30;;;9.30;;
46457;SDS011;32155;54.076;12.092;2023-03-24T00:15:11;17.42;;;9.45;;
46457;SDS011;32155;54.076;12.092;2023-03-24T00:17:42;16.05;;;9.10;;
46457;SDS011;32155;54.076;12.092;2023-03-24T00:20:14;20.00;;;10.60;;
46457;SDS011;32155;54.076;12.092;2023-03-24T00:22:44;16.73;;;10.70;;
46457;SDS011;32155;54.076;12.092;2023-03-24T00:25:12;20.13;;;10.20;;
46457;SDS011;32155;54.076;12.092;2023-03-24T00:27:40;15.63;;;9.77;;
46457;SDS011;32155;54.076;12.092;2023-03-24T00:30:08;14.57;;;9.90;;
46457;SDS011;32155;54.076;12.092;2023-03-24T00:35:21;19.10;;;9.55;;
46457;SDS011;32155;54.076;12.092;2023-03-24T00:37:47;16.50;;;9.80;;
46457;SDS011;32155;54.076;12.092;2023-03-24T00:40:17;19.35;;;10.85;;
46457;SDS011;32155;54.076;12.092;2023-03-24T00:42:45;21.17;;;10.85;;
46457;SDS011;32155;54.076;12.092;2023-03-24T00:45:15;16.35;;;9.50;;
46457;SDS011;32155;54.076;12.092;2023-03-24T00:47:43;22.30;;;9.95;;
46457;SDS011;32155;54.076;12.092;2023-03-24T00:50:12;14.95;;;9.75;;
46457;SDS011;32155;54.076;12.092;2023-03-24T00:52:40;17.90;;;9.55;;
46457;SDS011;32155;54.076;12.092;2023-03-24T00:55:08;19.30;;;9.93;;
46457;SDS011;32155;54.076;12.092;2023-03-24T00:57:38;22.95;;;10.80;;
46457;SDS011;32155;54.076;12.092;2023-03-24T01:00:13;19.67;;;10.10;;
46457;SDS011;32155;54.076;12.092;2023-03-24T01:02:42;17.35;;;10.40;;
46457;SDS011;32155;54.076;12.092;2023-03-24T01:05:11;20.90;;;10.40;;
46457;SDS011;32155;54.076;12.092;2023-03-24T01:07:39;16.13;;;10.57;;
46457;SDS011;32155;54.076;12.092;2023-03-24T01:10:06;16.70;;;9.85;;
46457;SDS011;32155;54.076;12.092;2023-03-24T01:12:41;17.17;;;9.90;;
46457;SDS011;32155;54.076;12.092;2023-03-24T01:15:10;22.10;;;9.65;;
46457;SDS011;32155;54.076;12.092;2023-03-24T01:17:39;14.80;;;9.07;;
46457;SDS011;32155;54.076;12.092;2023-03-24T01:20:11;17.58;;;9.63;;
46457;SDS011;32155;54.076;12.092;2023-03-24T01:22:38;21.55;;;9.60;;
46457;SDS011;32155;54.076;12.092;2023-03-24T01:25:10;16.73;;;9.75;;
46457;SDS011;32155;54.076;12.092;2023-03-24T01:27:39;15.70;;;9.05;;
46457;SDS011;32155;54.076;12.092;2023-03-24T01:30:05;11.80;;;8.27;;
46457;SDS011;32155;54.076;12.092;2023-03-24T01:32:34;16.23;;;9.10;;
46457;SDS011;32155;54.076;12.092;2023-03-24T01:35:00;17.20;;;8.43;;
46457;SDS011;32155;54.076;12.092;2023-03-24T01:37:25;13.82;;;7.53;;
46457;SDS011;32155;54.076;12.092;2023-03-24T01:39:54;17.77;;;8.13;;
46457;SDS011;32155;54.076;12.092;2023-03-24T01:42:21;15.70;;;7.65;;
46457;SDS011;32155;54.076;12.092;2023-03-24T01:44:50;11.57;;;8.00;;
46457;SDS011;32155;54.076;12.092;2023-03-24T01:47:20;16.33;;;8.20;;
46457;SDS011;32155;54.076;12.092;2023-03-24T01:49:50;16.65;;;7.78;;
46457;SDS011;32155;54.076;12.092;2023-03-24T01:52:20;17.80;;;7.93;;
46457;SDS011;32155;54.076;12.092;2023-03-24T01:54:55;11.60;;;6.55;;
46457;SDS011;32155;54.076;12.092;2023-03-24T01:57:28;14.60;;;7.22;;
46457;SDS011;32155;54.076;12.092;2023-03-24T01:59:58;15.32;;;7.28;;
46457;SDS011;32155;54.076;12.092;2023-03-24T02:02:29;11.82;;;7.45;;
46457;SDS011;32155;54.076;12.092;2023-03-24T02:05:00;11.57;;;6.28;;
46457;SDS011;32155;54.076;12.092;2023-03-24T02:10:23;17.20;;;7.50;;
46457;SDS011;32155;54.076;12.092;2023-03-24T02:12:52;17.50;;;7.57;;
46457;SDS011;32155;54.076;12.092;2023-03-24T02:15:20;13.13;;;7.35;;
46457;SDS011;32155;54.076;12.092;2023-03-24T02:42:25;12.10;;;7.43;;
46457;SDS011;32155;54.076;12.092;2023-03-24T02:53:29;11.63;;;7.65;;
46457;SDS011;32155;54.076;12.092;2023-03-24T02:56:06;12.88;;;7.97;;
46457;SDS011;32155;54.076;12.092;2023-03-24T02:58:48;14.90;;;8.15;;
46457;SDS011;32155;54.076;12.092;2023-03-24T03:04:09;14.43;;;8.25;;
46457;SDS011;32155;54.076;12.092;2023-03-24T03:06:39;16.50;;;8.38;;
46457;SDS011;32155;54.076;12.092;2023-03-24T03:09:11;13.13;;;8.73;;
46457;SDS011;32155;54.076;12.092;2023-03-24T03:11:47;16.80;;;8.93;;
46457;SDS011;32155;54.076;12.092;2023-03-24T03:14:21;16.70;;;8.68;;
46457;SDS011;32155;54.076;12.092;2023-03-24T03:17:06;14.82;;;8.20;;
46457;SDS011;32155;54.076;12.092;2023-03-24T03:19:37;19.10;;;9.30;;
46457;SDS011;32155;54.076;12.092;2023-03-24T03:22:20;14.95;;;9.32;;
46457;SDS011;32155;54.076;12.092;2023-03-24T03:24:48;16.35;;;9.73;;
46457;SDS011;32155;54.076;12.092;2023-03-24T03:27:19;16.33;;;8.98;;
46457;SDS011;32155;54.076;12.092;2023-03-24T03:29:52;17.42;;;9.48;;
46457;SDS011;32155;54.076;12.092;2023-03-24T03:32:47;16.65;;;9.70;;
46457;SDS011;32155;54.076;12.092;2023-03-24T03:35:40;17.05;;;9.43;;
46457;SDS011;32155;54.076;12.092;2023-03-24T03:40:50;18.02;;;9.80;;
46457;SDS011;32155;54.076;12.092;2023-03-24T03:43:23;16.13;;;10.27;;
46457;SDS011;32155;54.076;12.092;2023-03-24T03:45:53;18.05;;;9.88;;
46457;SDS011;32155;54.076;12.092;2023-03-24T03:48:20;19.55;;;10.18;;
46457;SDS011;32155;54.076;12.092;2023-03-24T03:50:45;17.95;;;10.48;;
46457;SDS011;32155;54.076;12.092;2023-03-24T03:53:15;18.38;;;10.63;;
46457;SDS011;32155;54.076;12.092;2023-03-24T03:55:43;16.30;;;11.57;;
46457;SDS011;32155;54.076;12.092;2023-03-24T03:58:09;14.65;;;10.50;;
46457;SDS011;32155;54.076;12.092;2023-03-24T04:00:39;18.75;;;10.88;;
46457;SDS011;32155;54.076;12.092;2023-03-24T04:05:49;19.10;;;10.27;;
46457;SDS011;32155;54.076;12.092;2023-03-24T04:13:53;16.88;;;11.43;;
46457;SDS011;32155;54.076;12.092;2023-03-24T04:23:12;21.90;;;11.73;;
46457;SDS011;32155;54.076;12.092;2023-03-24T04:28:23;20.58;;;12.25;;
46457;SDS011;32155;54.076;12.092;2023-03-24T04:33:56;22.45;;;12.35;;
46457;SDS011;32155;54.076;12.092;2023-03-24T04:39:08;22.30;;;12.85;;
46457;SDS011;32155;54.076;12.092;2023-03-24T04:41:36;24.60;;;12.82;;
46457;SDS011;32155;54.076;12.092;2023-03-24T04:44:06;19.70;;;13.40;;
46457;SDS011;32155;54.076;12.092;2023-03-24T04:46:32;21.05;;;11.98;;
46457;SDS011;32155;54.076;12.092;2023-03-24T04:48:58;22.20;;;12.77;;
46457;SDS011;32155;54.076;12.092;2023-03-24T04:51:26;25.15;;;13.70;;
46457;SDS011;32155;54.076;12.092;2023-03-24T04:53:54;19.55;;;13.40;;
46457;SDS011;32155;54.076;12.092;2023-03-24T04:59:15;17.90;;;12.98;;
46457;SDS011;32155;54.076;12.092;2023-03-24T05:01:41;27.42;;;13.38;;
46457;SDS011;32155;54.076;12.092;2023-03-24T05:04:17;22.02;;;13.10;;
46457;SDS011;32155;54.076;12.092;2023-03-24T05:06:46;23.27;;;13.98;;
46457;SDS011;32155;54.076;12.092;2023-03-24T05:09:17;25.10;;;13.45;;
46457;SDS011;32155;54.076;12.092;2023-03-24T05:11:46;21.00;;;13.63;;
46457;SDS011;32155;54.076;12.092;2023-03-24T05:14:12;24.80;;;13.77;;
46457;SDS011;32155;54.076;12.092;2023-03-24T05:16:38;22.58;;;13.23;;
46457;SDS011;32155;54.076;12.092;2023-03-24T05:19:04;22.45;;;13.77;;
46457;SDS011;32155;54.076;12.092;2023-03-24T05:21:30;26.23;;;14.23;;
46457;SDS011;32155;54.076;12.092;2023-03-24T05:23:59;23.20;;;14.02;;
46457;SDS011;32155;54.076;12.092;2023-03-24T05:26:25;23.73;;;14.02;;
46457;SDS011;32155;54.076;12.092;2023-03-24T05:28:53;20.98;;;13.57;;
46457;SDS011;32155;54.076;12.092;2023-03-24T05:31:20;24.02;;;14.65;;
46457;SDS011;32155;54.076;12.092;2023-03-24T05:33:45;21.23;;;13.65;;
46457;SDS011;32155;54.076;12.092;2023-03-24T05:36:12;23.90;;;14.82;;
46457;SDS011;32155;54.076;12.092;2023-03-24T05:38:40;27.23;;;14.85;;
46457;SDS011;32155;54.076;12.092;2023-03-24T05:41:08;22.17;;;15.25;;
46457;SDS011;32155;54.076;12.092;2023-03-24T05:43:34;21.08;;;14.25;;
46457;SDS011;32155;54.076;12.092;2023-03-24T05:46:00;20.00;;;13.77;;
46457;SDS011;32155;54.076;12.092;2023-03-24T05:48:26;20.05;;;13.85;;
46457;SDS011;32155;54.076;12.092;2023-03-24T05:50:52;24.05;;;14.45;;
46457;SDS011;32155;54.076;12.092;2023-03-24T05:53:18;21.33;;;15.05;;
46457;SDS011;32155;54.076;12.092;2023-03-24T05:55:44;26.00;;;15.13;;
46457;SDS011;32155;54.076;12.092;2023-03-24T05:58:10;25.67;;;16.52;;
46457;SDS011;32155;54.076;12.092;2023-03-24T06:00:39;27.58;;;15.50;;
46457;SDS011;32155;54.076;12.092;2023-03-24T06:03:05;21.27;;;15.55;;
46457;SDS011;32155;54.076;12.092;2023-03-24T06:05:33;19.70;;;14.38;;
46457;SDS011;32155;54.076;12.092;2023-03-24T06:07:59;23.63;;;14.07;;
46457;SDS011;32155;54.076;12.092;2023-03-24T06:10:25;19.13;;;14.32;;
46457;SDS011;32155;54.076;12.092;2023-03-24T06:12:52;22.92;;;13.48;;
46457;SDS011;32155;54.076;12.092;2023-03-24T06:17:54;21.50;;;13.90;;
46457;SDS011;32155;54.076;12.092;2023-03-24T06:20:25;20.08;;;13.05;;
46457;SDS011;32155;54.076;12.092;2023-03-24T06:22:51;24.55;;;13.55;;
46457;SDS011;32155;54.076;12.092;2023-03-24T06:25:23;19.17;;;12.55;;
46457;SDS011;32155;54.076;12.092;2023-03-24T06:27:52;17.67;;;12.40;;
46457;SDS011;32155;54.076;12.092;2023-03-24T06:30:20;19.38;;;10.73;;
46457;SDS011;32155;54.076;12.092;2023-03-24T06:32:48;16.27;;;10.93;;
46457;SDS011;32155;54.076;12.092;2023-03-24T06:35:16;15.50;;;11.13;;
46457;SDS011;32155;54.076;12.092;2023-03-24T06:37:44;13.18;;;10.70;;
46457;SDS011;32155;54.076;12.092;2023-03-24T06:40:10;17.52;;;11.15;;
46457;SDS011;32155;54.076;12.092;2023-03-24T06:42:41;15.10;;;9.77;;
46457;SDS011;32155;54.076;12.092;2023-03-24T06:45:09;14.82;;;9.48;;
46457;SDS011;32155;54.076;12.092;2023-03-24T06:47:35;16.63;;;9.95;;
46457;SDS011;32155;54.076;12.092;2023-03-24T06:52:32;15.27;;;9.65;;
46457;SDS011;32155;54.076;12.092;2023-03-24T06:55:01;13.05;;;10.30;;
46457;SDS011;32155;54.076;12.092;2023-03-24T06:57:27;17.92;;;10.32;;
46457;SDS011;32155;54.076;12.092;2023-03-24T06:59:55;14.68;;;10.30;;
46457;SDS011;32155;54.076;12.092;2023-03-24T07:02:21;13.48;;;10.70;;
46457;SDS011;32155;54.076;12.092;2023-03-24T07:04:49;16.73;;;10.20;;
46457;SDS011;32155;54.076;12.092;2023-03-24T07:07:17;19.60;;;11.75;;
46457;SDS011;32155;54.076;12.092;2023-03-24T07:09:46;14.95;;;11.38;;
46457;SDS011;32155;54.076;12.092;2023-03-24T07:12:12;13.15;;;10.40;;
46457;SDS011;32155;54.076;12.092;2023-03-24T07:14:37;19.27;;;11.10;;
46457;SDS011;32155;54.076;12.092;2023-03-24T07:17:08;15.60;;;10.75;;
46457;SDS011;32155;54.076;12.092;2023-03-24T07:19:34;14.32;;;10.20;;
46457;SDS011;32155;54.076;12.092;2023-03-24T07:22:00;15.30;;;9.88;;
46457;SDS011;32155;54.076;12.092;2023-03-24T07:24:25;13.07;;;10.20;;
46457;SDS011;32155;54.076;12.092;2023-03-24T07:26:53;12.20;;;9.20;;
46457;SDS011;32155;54.076;12.092;2023-03-24T07:29:19;13.35;;;8.80;;
46457;SDS011;32155;54.076;12.092;2023-03-24T07:31:45;10.10;;;7.90;;
46457;SDS011;32155;54.076;12.092;2023-03-24T07:34:14;9.30;;;7.47;;
46457;SDS011;32155;54.076;12.092;2023-03-24T07:36:43;10.88;;;7.22;;
46457;SDS011;32155;54.076;12.092;2023-03-24T07:39:13;9.35;;;6.95;;
46457;SDS011;32155;54.076;12.092;2023-03-24T07:41:41;9.57;;;7.30;;
46457;SDS011;32155;54.076;12.092;2023-03-24T07:44:07;9.60;;;7.18;;
46457;SDS011;32155;54.076;12.092;2023-03-24T07:46:35;8.73;;;6.72;;
46457;SDS011;32155;54.076;12.092;2023-03-24T07:49:01;11.93;;;7.03;;
46457;SDS011;32155;54.076;12.092;2023-03-24T07:51:27;11.70;;;6.68;;
46457;SDS011;32155;54.076;12.092;2023-03-24T07:53:53;9.95;;;7.43;;
46457;SDS011;32155;54.076;12.092;2023-03-24T07:56:22;12.05;;;7.10;;
46457;SDS011;32155;54.076;12.092;2023-03-24T07:58:48;8.65;;;7.50;;
46457;SDS011;32155;54.076;12.092;2023-03-24T08:01:16;10.60;;;8.10;;
46457;SDS011;32155;54.076;12.092;2023-03-24T08:03:42;14.68;;;8.90;;
46457;SDS011;32155;54.076;12.092;2023-03-24T08:06:08;14.93;;;9.63;;
46457;SDS011;32155;54.076;12.092;2023-03-24T08:08:38;13.35;;;9.63;;
46457;SDS011;32155;54.076;12.092;2023-03-24T08:11:06;11.65;;;9.63;;
46457;SDS011;32155;54.076;12.092;2023-03-24T08:13:34;11.73;;;9.23;;
46457;SDS011;32155;54.076;12.092;2023-03-24T08:16:00;13.60;;;9.88;;
46457;SDS011;32155;54.076;12.092;2023-03-24T08:18:26;11.85;;;9.13;;
46457;SDS011;32155;54.076;12.092;2023-03-24T08:20:58;11.15;;;8.15;;
46457;SDS011;32155;54.076;12.092;2023-03-24T08:23:25;10.40;;;8.30;;
46457;SDS011;32155;54.076;12.092;2023-03-24T08:25:51;13.35;;;7.95;;
46457;SDS011;32155;54.076;12.092;2023-03-24T08:28:17;8.55;;;7.05;;
46457;SDS011;32155;54.076;12.092;2023-03-24T08:30:42;12.50;;;8.40;;
46457;SDS011;32155;54.076;12.092;2023-03-24T08:33:08;10.63;;;7.68;;
46457;SDS011;32155;54.076;12.092;2023-03-24T08:35:35;10.25;;;6.95;;
46457;SDS011;32155;54.076;12.092;2023-03-24T08:38:05;8.05;;;7.25;;
46457;SDS011;32155;54.076;12.092;2023-03-24T08:40:39;9.20;;;7.20;;
46457;SDS011;32155;54.076;12.092;2023-03-24T08:43:06;7.15;;;6.45;;
46457;SDS011;32155;54.076;12.092;2023-03-24T08:45:36;9.02;;;6.65;;
46457;SDS011;32155;54.076;12.092;2023-03-24T08:48:05;7.97;;;6.03;;
46457;SDS011;32155;54.076;12.092;2023-03-24T08:50:38;9.57;;;5.78;;
46457;SDS011;32155;54.076;12.092;2023-03-24T08:53:05;6.90;;;5.35;;
46457;SDS011;32155;54.076;12.092;2023-03-24T08:55:31;9.07;;;5.03;;
46457;SDS011;32155;54.076;12.092;2023-03-24T08:58:02;7.30;;;5.07;;
46457;SDS011;32155;54.076;12.092;2023-03-24T09:00:32;5.90;;;5.20;;
46457;SDS011;32155;54.076;12.092;2023-03-24T09:03:00;8.57;;;5.60;;
46457;SDS011;32155;54.076;12.092;2023-03-24T09:05:33;6.40;;;5.35;;
46457;SDS011;32155;54.076;12.092;2023-03-24T09:07:58;10.00;;;6.03;;
46457;SDS011;32155;54.076;12.092;2023-03-24T09:10:27;8.55;;;5.55;;
46457;SDS011;32155;54.076;12.092;2023-03-24T09:12:55;6.85;;;5.25;;
46457;SDS011;32155;54.076;12.092;2023-03-24T09:15:20;6.22;;;4.35;;
46457;SDS011;32155;54.076;12.092;2023-03-24T09:17:46;4.72;;;4.18;;
46457;SDS011;32155;54.076;12.092;2023-03-24T09:20:12;6.63;;;3.90;;
46457;SDS011;32155;54.076;12.092;2023-03-24T09:22:40;6.70;;;3.65;;
46457;SDS011;32155;54.076;12.092;2023-03-24T09:25:07;4.70;;;3.05;;
46457;SDS011;32155;54.076;12.092;2023-03-24T09:27:42;5.55;;;2.65;;
46457;SDS011;32155;54.076;12.092;2023-03-24T09:30:08;3.63;;;1.65;;
46457;SDS011;32155;54.076;12.092;2023-03-24T09:32:34;8.40;;;1.73;;
46457;SDS011;32155;54.076;12.092;2023-03-24T09:35:01;8.48;;;1.80;;
46457;SDS011;32155;54.076;12.092;2023-03-24T09:37:33;7.72;;;1.58;;
46457;SDS011;32155;54.076;12.092;2023-03-24T09:40:07;5.22;;;1.80;;
46457;SDS011;32155;54.076;12.092;2023-03-24T09:42:40;8.13;;;1.80;;
46457;SDS011;32155;54.076;12.092;2023-03-24T09:45:09;8.93;;;1.92;;
46457;SDS011;32155;54.076;12.092;2023-03-24T09:56:29;7.63;;;1.55;;
46457;SDS011;32155;54.076;12.092;2023-03-24T10:01:43;5.07;;;1.98;;
46457;SDS011;32155;54.076;12.092;2023-03-24T10:04:14;6.45;;;1.73;;
46457;SDS011;32155;54.076;12.092;2023-03-24T10:09:46;6.35;;;2.35;;
46457;SDS011;32155;54.076;12.092;2023-03-24T10:12:33;7.35;;;1.70;;
46457;SDS011;32155;54.076;12.092;2023-03-24T10:26:08;8.13;;;1.98;;
46457;SDS011;32155;54.076;12.092;2023-03-24T10:34:46;7.82;;;1.75;;
46457;SDS011;32155;54.076;12.092;2023-03-24T10:37:19;9.15;;;2.00;;
46457;SDS011;32155;54.076;12.092;2023-03-24T10:39:45;9.98;;;1.95;;
46457;SDS011;32155;54.076;12.092;2023-03-24T10:42:27;10.15;;;1.83;;
46457;SDS011;32155;54.076;12.092;2023-03-24T10:44:56;13.97;;;2.03;;
46457;SDS011;32155;54.076;12.092;2023-03-24T10:47:26;12.55;;;2.45;;
46457;SDS011;32155;54.076;12.092;2023-03-24T10:49:59;7.68;;;1.85;;
46457;SDS011;32155;54.076;12.092;2023-03-24T10:52:36;6.40;;;1.80;;
46457;SDS011;32155;54.076;12.092;2023-03-24T17:10:44;19.80;;;3.50;;
46457;SDS011;32155;54.076;12.092;2023-03-24T17:13:16;15.20;;;3.25;;
46457;SDS011;32155;54.076;12.092;2023-03-24T17:15:43;17.83;;;4.07;;
46457;SDS011;32155;54.076;12.092;2023-03-24T17:18:09;19.13;;;4.45;;
46457;SDS011;32155;54.076;12.092;2023-03-24T17:20:37;24.20;;;5.35;;
46457;SDS011;32155;54.076;12.092;2023-03-24T17:29:57;18.77;;;4.60;;
46457;SDS011;32155;54.076;12.092;2023-03-24T17:51:10;19.23;;;3.40;;
46457;SDS011;32155;54.076;12.092;2023-03-24T17:54:52;17.30;;;4.05;;
46457;SDS011;32155;54.076;12.092;2023-03-24T18:01:48;26.92;;;5.15;;
46457;SDS011;32155;54.076;12.092;2023-03-24T18:05:23;19.30;;;4.35;;
46457;SDS011;32155;54.076;12.092;2023-03-24T18:07:55;24.00;;;4.82;;
46457;SDS011;32155;54.076;12.092;2023-03-24T18:11:23;17.73;;;3.85;;
46457;SDS011;32155;54.076;12.092;2023-03-24T18:14:20;18.50;;;4.50;;
46457;SDS011;32155;54.076;12.092;2023-03-24T18:27:38;28.45;;;5.25;;
46457;SDS011;32155;54.076;12.092;2023-03-24T18:31:11;21.73;;;5.03;;
46457;SDS011;32155;54.076;12.092;2023-03-24T18:34:16;21.08;;;6.13;;
46457;SDS011;32155;54.076;12.092;2023-03-24T18:37:23;20.15;;;6.55;;
46457;SDS011;32155;54.076;12.092;2023-03-24T18:40:25;21.77;;;6.60;;
46457;SDS011;32155;54.076;12.092;2023-03-24T18:44:07;25.40;;;6.68;;
46457;SDS011;32155;54.076;12.092;2023-03-24T18:54:41;19.33;;;5.57;;
46457;SDS011;32155;54.076;12.092;2023-03-24T18:58:09;18.60;;;4.60;;
46457;SDS011;32155;54.076;12.092;2023-03-24T19:00:48;31.50;;;10.15;;
46457;SDS011;32155;54.076;12.092;2023-03-24T19:03:19;21.55;;;6.78;;
46457;SDS011;32155;54.076;12.092;2023-03-24T19:06:14;25.05;;;5.75;;
46457;SDS011;32155;54.076;12.092;2023-03-24T19:08:52;24.92;;;5.45;;
46457;SDS011;32155;54.076;12.092;2023-03-24T19:11:30;18.92;;;5.07;;
46457;SDS011;32155;54.076;12.092;2023-03-24T19:15:16;23.30;;;4.55;;
46457;SDS011;32155;54.076;12.092;2023-03-24T19:18:28;16.05;;;4.00;;
46457;SDS011;32155;54.076;12.092;2023-03-24T19:21:41;17.73;;;4.22;;
46457;SDS011;32155;54.076;12.092;2023-03-24T19:24:40;11.45;;;3.80;;
46457;SDS011;32155;54.076;12.092;2023-03-24T19:30:17;14.57;;;3.67;;
46457;SDS011;32155;54.076;12.092;2023-03-24T19:32:54;16.10;;;3.10;;
46457;SDS011;32155;54.076;12.092;2023-03-24T19:35:34;16.60;;;3.38;;
46457;SDS011;32155;54.076;12.092;2023-03-24T19:38:51;9.30;;;3.00;;
46457;SDS011;32155;54.076;12.092;2023-03-24T19:41:35;13.30;;;3.80;;
46457;SDS011;32155;54.076;12.092;2023-03-24T19:44:13;13.43;;;3.08;;
46457;SDS011;32155;54.076;12.092;2023-03-24T19:46:48;16.15;;;2.95;;
46457;SDS011;32155;54.076;12.092;2023-03-24T19:53:13;10.10;;;2.67;;
46457;SDS011;32155;54.076;12.092;2023-03-24T19:56:04;13.02;;;2.95;;
46457;SDS011;32155;54.076;12.092;2023-03-24T20:06:50;6.20;;;2.03;;
46457;SDS011;32155;54.076;12.092;2023-03-24T20:17:18;14.50;;;2.75;;
46457;SDS011;32155;54.076;12.092;2023-03-24T20:24:13;12.10;;;2.30;;
46457;SDS011;32155;54.076;12.092;2023-03-24T20:31:19;9.98;;;2.45;;
46457;SDS011;32155;54.076;12.092;2023-03-24T20:34:03;15.88;;;2.85;;
46457;SDS011;32155;54.076;12.092;2023-03-24T20:36:58;10.25;;;2.33;;
46457;SDS011;32155;54.076;12.092;2023-03-24T20:39:52;11.95;;;2.58;;
46457;SDS011;32155;54.076;12.092;2023-03-24T20:43:15;11.95;;;2.70;;
46457;SDS011;32155;54.076;12.092;2023-03-24T20:46:15;9.88;;;2.88;;
46457;SDS011;32155;54.076;12.092;2023-03-24T20:52:44;6.82;;;2.67;;
46457;SDS011;32155;54.076;12.092;2023-03-24T20:56:16;7.97;;;2.38;;
46457;SDS011;32155;54.076;12.092;2023-03-24T21:02:29;9.63;;;3.15;;
46457;SDS011;32155;54.076;12.092;2023-03-24T21:05:05;8.75;;;2.65;;
46457;SDS011;32155;54.076;12.092;2023-03-24T21:08:54;8.35;;;2.95;;
46457;SDS011;32155;54.076;12.092;2023-03-24T21:15:24;7.72;;;2.50;;
46457;SDS011;32155;54.076;12.092;2023-03-24T21:18:18;7.55;;;2.58;;
46457;SDS011;32155;54.076;12.092;2023-03-24T21:27:27;9.40;;;2.47;;
46457;SDS011;32155;54.076;12.092;2023-03-24T21:31:24;11.70;;;2.90;;
46457;SDS011;32155;54.076;12.092;2023-03-24T21:38:23;14.95;;;3.17;;
46457;SDS011;32155;54.076;12.092;2023-03-24T21:41:45;7.70;;;2.85;;
46457;SDS011;32155;54.076;12.092;2023-03-24T21:45:32;6.68;;;2.50;;
46457;SDS011;32155;54.076;12.092;2023-03-24T21:49:14;7.53;;;2.38;;
46457;SDS011;32155;54.076;12.092;2023-03-24T21:52:54;8.10;;;2.35;;
46457;SDS011;32155;54.076;12.092;2023-03-24T21:56:32;7.50;;;2.72;;
46457;SDS011;32155;54.076;12.092;2023-03-24T22:00:03;8.32;;;2.45;;
46457;SDS011;32155;54.076;12.092;2023-03-24T22:17:10;6.43;;;2.42;;
46457;SDS011;32155;54.076;12.092;2023-03-24T22:30:39;6.85;;;2.65;;
46457;SDS011;32155;54.076;12.092;2023-03-24T22:34:20;4.63;;;2.38;;
46457;SDS011;32155;54.076;12.092;2023-03-24T22:38:12;9.57;;;2.60;;
46457;SDS011;32155;54.076;12.092;2023-03-24T22:45:14;10.48;;;2.38;;
46457;SDS011;32155;54.076;12.092;2023-03-24T22:48:51;6.80;;;2.60;;
46457;SDS011;32155;54.076;12.092;2023-03-24T22:52:31;6.85;;;2.45;;
46457;SDS011;32155;54.076;12.092;2023-03-24T23:03:01;8.15;;;2.40;;
46457;SDS011;32155;54.076;12.092;2023-03-24T23:06:26;10.38;;;2.67;;
46457;SDS011;32155;54.076;12.092;2023-03-24T23:13:25;6.32;;;2.75;;
46457;SDS011;32155;54.076;12.092;2023-03-24T23:20:33;6.15;;;2.38;;
46457;SDS011;32155;54.076;12.092;2023-03-24T23:27:18;6.53;;;2.17;;
46457;SDS011;32155;54.076;12.092;2023-03-24T23:29:45;4.72;;;2.30;;
46457;SDS011;32155;54.076;12.092;2023-03-24T23:32:11;9.25;;;2.85;;
46457;SDS011;32155;54.076;12.092;2023-03-24T23:34:37;3.85;;;2.00;;
46457;SDS011;32155;54.076;12.092;2023-03-24T23:37:08;5.03;;;2.22;;
46457;SDS011;32155;54.076;12.092;2023-03-24T23:39:33;5.25;;;1.88;;
46457;SDS011;32155;54.076;12.092;2023-03-24T23:42:02;6.22;;;2.33;;
46457;SDS011;32155;54.076;12.092;2023-03-24T23:44:32;11.40;;;2.45;;
46457;SDS011;32155;54.076;12.092;2023-03-24T23:47:00;6.43;;;2.03;;
46457;SDS011;32155;54.076;12.092;2023-03-24T23:49:25;4.55;;;2.33;;
46457;SDS011;32155;54.076;12.092;2023-03-24T23:51:51;5.97;;;1.85;;
46457;SDS011;32155;54.076;12.092;2023-03-24T23:54:17;6.22;;;2.22;;
46457;SDS011;32155;54.076;12.092;2023-03-24T23:56:50;4.07;;;1.95;;
46457;SDS011;32155;54.076;12.092;2023-03-24T23:59:18;5.15;;;2.10;;
